MDT,Max TemperatureF,Mean TemperatureF,Min TemperatureF,Max Dew PointF,MeanDew PointF,Min DewpointF,Max Humidity, Mean Humidity, Min Humidity, Max Sea Level PressureIn, Mean Sea Level PressureIn, Min Sea Level PressureIn, Max VisibilityMiles, Mean VisibilityMiles, Min VisibilityMiles, Max Wind SpeedMPH, Mean Wind SpeedMPH, Max Gust SpeedMPH,PrecipitationIn, CloudCover, Events, WindDirDegrees
2013-6-1,63,53,42,45,42,39,96,70,43,30.22,30.15,30.07,10,9,4,23,13,31,0.09,5,Rain,327
2013-6-2,75,59,43,49,45,40,89,65,41,30.10,29.84,29.54,10,10,10,25,14,33,0.00,0,,146
2013-6-3,69,57,44,48,43,36,93,64,35,29.96,29.71,29.48,10,10,10,26,16,36,0.00,2,,316
2013-6-4,56,47,37,39,37,35,86,70,54,30.27,30.14,29.97,10,10,10,23,13,29,0.00,4,,323
2013-6-5,63,48,33,41,37,33,92,66,39,30.25,30.18,30.07,10,10,10,10,3,13,0.00,1,,55
2013-6-6,74,58,42,47,43,38,86,60,33,30.09,30.01,29.98,10,10,10,18,8,28,0.00,0,,149
2013-6-7,81,66,50,54,47,42,86,56,26,30.01,29.80,29.59,10,10,9,23,8,26,0.01,1,Rain,179
2013-6-8,70,59,47,52,48,42,96,67,37,29.93,29.81,29.62,10,10,4,44,13,52,0.13,3,Rain-Thunderstorm,304
2013-6-9,82,64,45,49,45,41,93,60,26,29.96,29.81,29.62,10,10,10,24,10,30,0.00,0,,170
2013-6-10,79,66,53,56,52,49,77,57,37,29.76,29.71,29.60,10,10,10,21,7,26,0.00,0,,27
2013-6-11,83,67,50,60,55,46,100,69,37,29.91,29.77,29.65,10,10,5,38,9,47,0.09,3,Rain-Thunderstorm,126
2013-6-12,74,63,51,55,53,51,100,77,53,30.15,30.04,29.88,10,10,10,29,9,35,0.03,4,Rain-Thunderstorm,76
2013-6-13,80,67,54,57,51,40,83,56,29,30.01,29.83,29.65,10,10,10,37,21,44,0.01,1,Rain-Thunderstorm,151
2013-6-14,80,62,44,55,46,25,93,53,13,30.06,29.89,29.62,10,10,10,35,12,44,0.00,3,,305
2013-6-15,76,57,37,44,37,32,86,54,21,30.06,29.99,29.89,10,10,10,13,4,17,0.00,0,,180
2013-6-16,79,61,43,53,46,41,96,63,30,30.08,29.98,29.95,10,10,10,18,5,22,0.00,1,,15
2013-6-17,78,61,44,59,51,44,93,68,43,30.11,30.04,29.97,10,10,8,18,6,25,0.04,1,Rain-Thunderstorm,81
2013-6-18,84,69,53,53,50,46,89,61,33,30.05,29.91,29.75,10,9,2,43,15,56,0.34,1,Rain-Thunderstorm,160
2013-6-19,87,71,55,61,52,32,77,51,24,29.76,29.58,29.45,10,10,10,36,20,45,0.00,0,,155
2013-6-20,80,63,45,47,41,33,86,53,19,29.83,29.76,29.60,10,10,10,18,6,23,0.00,0,,25
2013-6-21,65,58,50,57,53,46,100,81,62,30.00,29.92,29.82,10,9,0,21,9,29,0.92,7,Fog-Rain-Thunderstorm,357
2013-6-22,70,57,44,58,53,43,100,83,66,30.03,29.94,29.79,10,9,0,48,6,61,0.79,7,Fog-Rain-Thunderstorm,329
2013-6-23,77,61,44,51,46,41,100,65,29,29.98,29.84,29.70,10,10,10,18,8,23,0.00,0,,198
2013-6-24,86,71,56,57,52,43,86,59,31,29.71,29.62,29.53,10,10,4,23,10,30,0.06,1,Rain-Thunderstorm,126
2013-6-25,79,69,58,58,52,41,93,65,36,29.81,29.70,29.51,10,10,10,28,9,33,0.00,1,,238
2013-6-26,83,68,53,56,53,49,86,61,36,30.01,29.88,29.79,10,10,10,15,4,16,0.00,0,,33
2013-6-27,86,69,52,57,53,50,100,65,30,30.16,30.07,30.01,10,10,10,17,6,26,0.00,0,,318
2013-6-28,85,69,53,54,52,48,93,63,32,30.19,30.15,30.08,10,10,10,14,4,18,0.00,0,,348
2013-6-29,83,68,52,57,53,51,93,65,36,30.13,30.10,30.04,10,10,10,16,7,21,0.00,0,,43
2013-6-30,83,71,59,53,50,46,75,53,31,30.12,30.07,30.04,10,10,10,15,6,23,0.00,1,,102